Time;durP1;ratioP1;P1;durP2;ratioP2;P2;SDS_P1;SDS_P2;PMS_P1;PMS_P2;Temp;Humidity;BMP_temperature;BMP_pressure;BME280_temperature;BME280_humidity;BME280_pressure;Samples;Min_cycle;Max_cycle;Signal;HPM_P1;HPM_P2
2022/04/12 00:02:00;;;;;;;38.40;25.40;;;;;;;3.28;71.59;100638.90;1725142;83;25583;-76
2022/04/12 00:04:28;;;;;;;39.10;24.10;;;;;;;3.27;71.49;100643.16;1725142;83;27416;-76
2022/04/12 00:06:54;;;;;;;33.78;22.82;;;;;;;3.24;71.24;100639.67;1724779;83;25616;-75
2022/04/12 00:09:20;;;;;;;32.38;21.30;;;;;;;3.21;71.42;100641.51;1724996;82;28086;-75
2022/04/12 00:11:46;;;;;;;38.55;24.72;;;;;;;3.13;71.36;100638.73;1724988;83;25665;-76
2022/04/12 00:14:12;;;;;;;41.25;25.50;;;;;;;3.08;71.24;100637.34;1724831;83;25483;-75
2022/04/12 00:16:38;;;;;;;39.15;23.85;;;;;;;3.01;71.20;100644.75;1725077;83;27496;-74
2022/04/12 00:19:05;;;;;;;31.45;21.30;;;;;;;2.93;71.33;100650.83;1724996;82;25666;-75
2022/04/12 00:21:34;;;;;;;32.03;19.77;;;;;;;2.85;71.46;100648.58;1724799;83;25650;-76
2022/04/12 00:24:08;;;;;;;30.90;20.05;;;;;;;2.78;71.66;100647.43;1725187;83;26385;-74
2022/04/12 00:26:34;;;;;;;31.82;19.55;;;;;;;2.72;71.81;100650.28;1731251;82;25605;-73
2022/04/12 00:29:01;;;;;;;29.12;18.85;;;;;;;2.63;71.90;100645.90;1706596;82;27445;-74
2022/04/12 00:31:30;;;;;;;25.75;17.67;;;;;;;2.56;72.30;100641.27;1731150;82;25537;-74
2022/04/12 00:33:56;;;;;;;27.95;18.40;;;;;;;2.49;72.42;100653.46;1731189;81;25747;-74
2022/04/12 00:36:21;;;;;;;28.77;17.92;;;;;;;2.42;72.56;100644.29;1730988;82;26382;-74
2022/04/12 00:38:47;;;;;;;28.98;18.73;;;;;;;2.35;72.71;100640.16;1731436;82;32352;-74
2022/04/12 00:41:14;;;;;;;30.85;18.15;;;;;;;2.29;72.83;100651.30;1730417;82;28101;-74
2022/04/12 00:43:42;;;;;;;28.75;18.40;;;;;;;2.16;72.81;100641.79;1729930;82;25458;-74
2022/04/12 00:46:09;;;;;;;27.37;17.50;;;;;;;2.12;72.64;100644.64;1730755;82;26662;-75
2022/04/12 00:48:35;;;;;;;32.17;18.15;;;;;;;2.06;72.85;100652.31;1707143;82;25693;-75
2022/04/12 00:51:01;;;;;;;27.02;17.10;;;;;;;2.00;73.15;100647.39;1728640;82;25590;-74
2022/04/12 00:53:29;;;;;;;23.45;16.00;;;;;;;1.92;73.05;100653.66;1725300;83;27402;-74
2022/04/12 00:55:55;;;;;;;27.62;18.32;;;;;;;1.84;73.09;100656.23;1704496;83;25734;-74
2022/04/12 00:58:23;;;;;;;27.52;17.50;;;;;;;1.77;73.25;100657.71;1704659;83;25499;-74
2022/04/12 01:00:49;;;;;;;27.30;17.00;;;;;;;1.71;73.11;100653.33;1725267;83;25661;-74
2022/04/12 01:03:16;;;;;;;23.35;15.95;;;;;;;1.65;73.41;100660.95;1725351;83;25421;-74
2022/04/12 01:05:42;;;;;;;26.00;16.35;;;;;;;1.57;73.25;100661.36;1725295;83;27327;-74
2022/04/12 01:08:09;;;;;;;30.77;17.70;;;;;;;1.49;73.18;100667.87;1725239;83;25418;-74
2022/04/12 01:10:37;;;;;;;26.65;18.37;;;;;;;1.39;73.21;100667.69;1725416;83;25472;-74
2022/04/12 01:13:03;;;;;;;22.77;16.82;;;;;;;1.30;73.45;100664.06;1725850;83;25701;-74
2022/04/12 01:15:29;;;;;;;29.35;18.30;;;;;;;1.22;73.42;100664.97;1725766;83;25647;-74
2022/04/12 01:17:57;;;;;;;29.02;18.27;;;;;;;1.13;73.44;100667.20;1725772;83;28341;-75
2022/04/12 01:20:25;;;;;;;31.87;18.85;;;;;;;1.07;73.70;100671.64;1725785;83;25485;-74
2022/04/12 01:23:15;;;;;;;27.58;18.23;;;;;;;1.01;73.89;100670.44;1725731;83;25425;-75
2022/04/12 01:25:41;;;;;;;24.23;16.60;;;;;;;0.94;73.86;100669.23;1725412;83;32708;-74
2022/04/12 01:28:10;;;;;;;28.15;19.17;;;;;;;0.87;74.06;100680.02;1725324;83;25615;-74
2022/04/12 01:30:37;;;;;;;27.58;19.25;;;;;;;0.79;74.28;100671.05;1725263;83;27570;-75
2022/04/12 01:33:04;;;;;;;27.20;18.52;;;;;;;0.72;74.16;100677.84;1725153;83;25803;-75
2022/04/12 01:35:32;;;;;;;25.85;17.87;;;;;;;0.64;74.15;100679.52;1704693;83;25657;-75
2022/04/12 01:37:59;;;;;;;31.93;20.17;;;;;;;0.56;73.98;100677.20;1725416;83;25807;-75
2022/04/12 01:40:25;;;;;;;28.80;18.73;;;;;;;0.47;74.17;100677.28;1725503;83;25430;-75
2022/04/12 01:42:52;;;;;;;27.90;18.77;;;;;;;0.40;74.36;100677.39;1725515;83;27353;-74
2022/04/12 01:45:26;;;;;;;28.70;18.95;;;;;;;0.37;74.59;100676.52;1725317;83;25666;-74
2022/04/12 01:47:48;;;;;;;;;;;;;;;0.31;74.61;100669.48;1725935;83;25468;-75
2022/04/12 01:50:14;;;;;;;29.27;17.73;;;;;;;0.26;74.81;100668.03;1725380;83;34640;-75
2022/04/12 01:52:41;;;;;;;32.15;18.32;;;;;;;0.20;74.82;100671.61;1725462;83;25471;-75
2022/04/12 01:55:10;;;;;;;29.72;19.62;;;;;;;0.13;74.68;100680.50;1725467;83;27336;-75
2022/04/12 01:57:36;;;;;;;29.67;18.30;;;;;;;0.04;74.69;100677.90;1725584;83;25763;-75
2022/04/12 02:00:07;;;;;;;29.45;18.40;;;;;;;-0.03;74.70;100675.88;1725466;83;25680;-75
2022/04/12 02:02:34;;;;;;;28.12;18.42;;;;;;;-0.07;74.14;100680.84;1725447;82;25629;-75
2022/04/12 02:05:00;;;;;;;27.02;17.95;;;;;;;-0.14;74.28;100680.64;1725434;83;25622;-75
2022/04/12 02:07:27;;;;;;;29.30;18.95;;;;;;;-0.21;74.26;100675.41;1725526;82;27413;-74
2022/04/12 02:09:53;;;;;;;28.77;18.32;;;;;;;-0.28;74.33;100680.83;1726839;82;25231;-74
2022/04/12 02:12:19;;;;;;;26.57;18.17;;;;;;;-0.38;74.42;100670.73;1727381;83;25422;-74
2022/04/12 02:14:45;;;;;;;27.00;17.40;;;;;;;-0.46;74.52;100685.70;1709761;82;25803;-74
2022/04/12 02:17:11;;;;;;;28.35;18.10;;;;;;;-0.52;74.70;100676.49;1740283;82;25588;-74
2022/04/12 02:19:37;;;;;;;30.37;19.02;;;;;;;-0.58;75.00;100679.02;1740294;82;27339;-74
2022/04/12 02:22:05;;;;;;;32.10;19.00;;;;;;;-0.61;75.25;100677.33;1740299;82;32262;-74
2022/04/12 02:24:32;;;;;;;28.23;19.75;;;;;;;-0.66;75.22;100683.83;1739839;82;25173;-74
2022/04/12 02:26:58;;;;;;;30.50;18.62;;;;;;;-0.71;75.17;100683.17;1713264;82;25799;-74
2022/04/12 02:29:24;;;;;;;30.05;18.70;;;;;;;-0.76;75.02;100688.34;1738430;82;25726;-76
2022/04/12 02:31:50;;;;;;;27.42;18.40;;;;;;;-0.80;74.89;100691.14;1738442;82;27325;-76
2022/04/12 02:34:16;;;;;;;30.05;18.32;;;;;;;-0.82;74.49;100692.72;1738354;82;25656;-76
2022/04/12 02:36:43;;;;;;;28.80;18.65;;;;;;;-0.84;74.81;100690.78;1738436;82;25620;-76
2022/04/12 02:39:09;;;;;;;32.45;18.98;;;;;;;-0.87;75.00;100693.91;1738388;82;26437;-76
2022/04/12 02:41:36;;;;;;;25.80;17.37;;;;;;;-0.91;75.24;100696.70;1713107;82;25503;-75
2022/04/12 02:44:03;;;;;;;31.40;18.98;;;;;;;-0.95;74.81;100707.48;1738449;82;28018;-73
2022/04/12 02:46:30;;;;;;;32.70;19.00;;;;;;;-0.98;75.00;100710.05;1738338;82;25443;-75
2022/04/12 02:48:56;;;;;;;31.23;18.40;;;;;;;-1.04;74.90;100709.62;1738352;82;25642;-75
2022/04/12 02:51:22;;;;;;;33.10;19.67;;;;;;;-1.08;74.71;100709.75;1738406;82;34750;-75
2022/04/12 02:53:48;;;;;;;30.88;18.70;;;;;;;-1.13;74.30;100709.08;1738459;82;25408;-75
2022/04/12 02:56:14;;;;;;;32.78;19.70;;;;;;;-1.16;74.99;100710.88;1738453;82;27440;-75
2022/04/12 02:58:41;;;;;;;28.65;18.87;;;;;;;-1.15;75.62;100717.78;1738344;82;25677;-75
2022/04/12 03:01:07;;;;;;;32.03;20.05;;;;;;;-1.18;75.69;100716.09;1738427;82;25465;-75
2022/04/12 03:03:33;;;;;;;30.68;19.82;;;;;;;-1.21;75.84;100716.03;1738402;82;25669;-76
2022/04/12 03:05:59;;;;;;;28.50;19.25;;;;;;;-1.23;75.88;100710.11;1738465;82;25567;-76
2022/04/12 03:08:25;;;;;;;30.68;18.98;;;;;;;-1.26;75.74;100714.55;1738439;82;27357;-75
2022/04/12 03:10:51;;;;;;;31.00;19.70;;;;;;;-1.34;75.66;100710.33;1738310;82;25619;-75
2022/04/12 03:13:18;;;;;;;31.37;18.67;;;;;;;-1.38;75.90;100718.45;1738439;82;27745;-75
2022/04/12 03:15:44;;;;;;;32.10;19.95;;;;;;;-1.39;76.37;100723.45;1731966;82;25691;-75
2022/04/12 03:18:10;;;;;;;32.78;19.52;;;;;;;-1.39;76.56;100723.45;1725382;82;25374;-75
2022/04/12 03:20:37;;;;;;;35.23;20.50;;;;;;;-1.39;76.36;100726.62;1725343;82;27458;-75
2022/04/12 03:23:03;;;;;;;30.72;18.98;;;;;;;-1.40;76.20;100726.31;1725286;83;25629;-75
2022/04/12 03:25:29;;;;;;;27.93;17.90;;;;;;;-1.43;76.34;100721.44;1725365;83;25428;-75
2022/04/12 03:27:55;;;;;;;28.32;18.57;;;;;;;-1.44;76.41;100727.80;1725326;82;25892;-75
2022/04/12 03:30:21;;;;;;;33.08;18.27;;;;;;;-1.46;76.05;100732.48;1725336;83;25401;-75
2022/04/12 03:32:47;;;;;;;29.63;18.52;;;;;;;-1.45;76.24;100736.77;1725367;83;27758;-75
2022/04/12 03:35:13;;;;;;;31.80;19.32;;;;;;;-1.48;76.40;100738.04;1725233;83;25677;-76
2022/04/12 03:37:39;;;;;;;29.57;18.37;;;;;;;-1.49;76.37;100732.42;1725366;83;25443;-76
2022/04/12 03:40:07;;;;;;;32.73;19.52;;;;;;;-1.48;77.05;100735.38;1725282;83;34698;-76
2022/04/12 03:42:33;;;;;;;32.28;19.40;;;;;;;-1.47;77.28;100732.20;1725387;83;25433;-75
2022/04/12 03:44:59;;;;;;;30.48;20.08;;;;;;;-1.42;77.88;100735.02;1725336;83;27368;-75
2022/04/12 03:47:25;;;;;;;31.30;19.30;;;;;;;-1.40;78.20;100735.08;1725262;82;25658;-75
2022/04/12 03:49:51;;;;;;;34.63;18.42;;;;;;;-1.37;77.93;100739.16;1725260;83;26841;-75
2022/04/12 03:52:18;;;;;;;30.82;19.62;;;;;;;-1.38;78.07;100733.53;1725319;83;26183;-75
2022/04/12 03:54:44;;;;;;;32.33;19.70;;;;;;;-1.38;77.60;100739.68;1725322;83;25583;-75
2022/04/12 03:57:10;;;;;;;27.45;18.57;;;;;;;-1.40;78.00;100733.75;1725338;82;27904;-75
2022/04/12 03:59:36;;;;;;;27.50;18.52;;;;;;;-1.39;77.96;100740.70;1725210;83;25433;-75
2022/04/12 04:02:03;;;;;;;27.93;18.80;;;;;;;-1.39;77.66;100742.02;1725319;83;25472;-75
2022/04/12 04:04:29;;;;;;;31.42;19.73;;;;;;;-1.40;77.41;100747.02;1725307;83;25566;-75
2022/04/12 04:06:55;;;;;;;27.93;18.67;;;;;;;-1.41;77.38;100749.40;1725341;83;25702;-75
2022/04/12 04:09:21;;;;;;;28.95;19.05;;;;;;;-1.42;77.35;100752.27;1725281;82;27356;-75
2022/04/12 04:11:48;;;;;;;35.10;20.75;;;;;;;-1.43;77.31;100754.61;1725233;83;25394;-75
2022/04/12 04:14:15;;;;;;;33.18;20.40;;;;;;;-1.44;77.45;100756.98;1725302;83;25600;-75
2022/04/12 04:16:42;;;;;;;31.70;18.20;;;;;;;-1.45;77.65;100753.50;1725204;83;25863;-75
2022/04/12 04:19:09;;;;;;;33.35;20.57;;;;;;;-1.43;77.36;100753.28;1725328;83;25475;-75
2022/04/12 04:21:37;;;;;;;33.38;19.85;;;;;;;-1.42;77.48;100753.59;1725330;83;27342;-74
2022/04/12 04:24:04;;;;;;;41.95;23.62;;;;;;;-1.41;77.97;100759.20;1725281;83;25735;-75
2022/04/12 04:26:30;;;;;;;37.20;22.50;;;;;;;-1.37;78.30;100765.69;1725344;83;25211;-74
2022/04/12 04:28:57;;;;;;;31.20;20.65;;;;;;;-1.34;78.11;100763.94;1725285;83;25798;-73
2022/04/12 04:31:23;;;;;;;34.53;21.00;;;;;;;-1.33;78.03;100765.05;1725284;83;25482;-73
2022/04/12 04:33:49;;;;;;;34.43;20.17;;;;;;;-1.31;78.12;100767.48;1725333;83;27403;-73
2022/04/12 04:36:16;;;;;;;36.77;20.40;;;;;;;-1.26;78.34;100765.48;1725274;83;25400;-74
2022/04/12 04:38:42;;;;;;;33.70;20.65;;;;;;;-1.24;78.43;100766.07;1725331;83;25589;-74
2022/04/12 04:41:08;;;;;;;33.60;21.02;;;;;;;-1.20;78.87;100769.41;1725274;83;26313;-73
2022/04/12 04:43:35;;;;;;;33.55;21.10;;;;;;;-1.12;79.34;100774.95;1726755;83;32318;-74
2022/04/12 04:46:01;;;;;;;34.38;21.55;;;;;;;-1.07;79.41;100776.44;1731922;83;27329;-74
2022/04/12 04:48:27;;;;;;;36.50;23.20;;;;;;;-0.99;80.08;100772.67;1728275;82;31249;-73
2022/04/12 04:50:53;;;;;;;41.65;23.95;;;;;;;-0.90;80.57;100773.19;1727669;83;25837;-74
2022/04/12 04:53:19;;;;;;;36.90;21.80;;;;;;;-0.83;80.45;100773.42;1727786;83;34746;-73
2022/04/12 04:55:47;;;;;;;33.50;20.82;;;;;;;-0.76;80.40;100779.47;1727935;83;32283;-74
2022/04/12 04:58:14;;;;;;;38.58;24.47;;;;;;;-0.67;80.67;100781.84;1728100;83;27333;-73
2022/04/12 05:00:40;;;;;;;42.17;24.45;;;;;;;-0.59;80.95;100782.34;1728338;83;25140;-73
2022/04/12 05:03:07;;;;;;;37.35;24.30;;;;;;;-0.49;80.93;100787.66;1728388;82;25274;-73
2022/04/12 05:05:34;;;;;;;38.70;23.87;;;;;;;-0.43;80.71;100789.41;1728330;82;25708;-74
2022/04/12 05:08:02;;;;;;;46.60;28.32;;;;;;;-0.36;80.72;100784.02;1728355;83;25278;-72
2022/04/12 05:10:44;;;;;;;42.33;27.82;;;;;;;-0.29;80.83;100792.22;1728544;83;27316;-73
2022/04/12 05:13:01;;;;;;;44.63;25.90;;;;;;;-0.20;81.45;100797.50;1721207;81;25269;-74
2022/04/12 05:15:28;;;;;;;37.83;26.87;;;;;;;-0.10;81.65;100798.30;1728581;83;25469;-73
2022/04/12 05:17:55;;;;;;;42.78;26.33;;;;;;;0.02;81.63;100805.49;1728505;83;25967;-74
2022/04/12 05:20:32;;;;;;;41.63;26.62;;;;;;;0.13;81.88;100806.06;1727978;82;25255;-75
2022/04/12 05:22:59;;;;;;;43.15;27.05;;;;;;;0.24;81.98;100805.80;1727064;83;27313;-75
2022/04/12 05:25:25;;;;;;;41.68;25.57;;;;;;;0.36;82.35;100810.12;1726771;83;25653;-74
2022/04/12 05:27:51;;;;;;;42.30;26.27;;;;;;;0.48;82.48;100816.00;1725703;83;25417;-75
2022/04/12 05:30:17;;;;;;;44.08;26.90;;;;;;;0.61;82.53;100818.95;1725769;82;26336;-74
2022/04/12 05:32:45;;;;;;;40.17;25.85;;;;;;;0.73;82.58;100821.09;1736749;81;25498;-74
2022/04/12 05:35:12;;;;;;;41.30;27.22;;;;;;;0.86;82.74;100823.55;1745072;82;27911;-74
2022/04/12 05:37:52;;;;;;;41.28;27.15;;;;;;;1.01;82.79;100826.28;1717876;82;25422;-75
2022/04/12 05:40:20;;;;;;;;;;;;;;;1.17;82.95;100826.89;1752693;82;25545;-73
2022/04/12 05:42:48;;;;;;;42.90;27.45;;;;;;;1.39;83.37;100838.30;1743725;82;26200;-75
2022/04/12 05:45:17;;;;;;;41.85;27.82;;;;;;;1.59;83.67;100832.58;1700027;84;25228;-74
2022/04/12 05:47:52;;;;;;;50.28;31.40;;;;;;;1.82;83.85;100829.02;1702762;84;27308;-75
2022/04/12 05:50:24;;;;;;;61.02;35.90;;;;;;;2.05;83.68;100838.80;1750279;82;25480;-75
2022/04/12 05:52:54;;;;;;;48.10;30.05;;;;;;;2.30;83.72;100836.30;1742804;82;25664;-73
2022/04/12 05:55:23;;;;;;;43.25;27.32;;;;;;;2.56;83.65;100832.22;1744926;82;25694;-73
2022/04/12 05:57:56;;;;;;;43.50;26.85;;;;;;;2.84;83.37;100831.31;1745192;82;25636;-74
2022/04/12 06:00:25;;;;;;;38.83;26.17;;;;;;;3.10;83.42;100834.36;1745248;82;27332;-75
2022/04/12 06:02:53;;;;;;;39.45;25.68;;;;;;;3.40;83.10;100837.98;1728470;82;25604;-74
2022/04/12 06:05:23;;;;;;;40.83;26.37;;;;;;;3.71;82.78;100833.02;1745075;82;25421;-74
2022/04/12 06:07:50;;;;;;;36.58;24.77;;;;;;;4.01;82.83;100840.59;1744920;82;25657;-74
2022/04/12 06:10:20;;;;;;;37.75;24.12;;;;;;;4.31;81.74;100850.00;1744946;82;25412;-74
2022/04/12 06:12:47;;;;;;;37.15;23.62;;;;;;;4.59;81.50;100850.24;1744961;82;27400;-74
2022/04/12 06:15:13;;;;;;;39.00;25.20;;;;;;;4.92;80.26;100853.73;1744790;82;25782;-74
2022/04/12 06:17:40;;;;;;;35.05;23.92;;;;;;;5.21;79.52;100850.69;1761709;81;25420;-73
2022/04/12 06:20:14;;;;;;;34.58;23.18;;;;;;;5.55;79.20;100862.41;1763977;81;25797;-73
2022/04/12 06:22:42;;;;;;;36.85;24.72;;;;;;;5.90;78.99;100859.06;1742678;81;25692;-73
2022/04/12 06:25:11;;;;;;;34.73;22.45;;;;;;;6.26;77.99;100859.18;1756321;81;27305;-73
2022/04/12 06:27:42;;;;;;;33.83;23.18;;;;;;;6.63;77.62;100858.16;1734977;82;25520;-73
2022/04/12 06:30:15;;;;;;;37.78;25.65;;;;;;;7.02;76.77;100854.91;1748913;81;25571;-73
2022/04/12 06:32:43;;;;;;;38.23;25.77;;;;;;;7.32;75.40;100857.30;1763891;81;26312;-73
2022/04/12 06:35:12;;;;;;;34.38;24.35;;;;;;;7.66;75.02;100857.45;1756228;81;25475;-73
2022/04/12 06:37:40;;;;;;;40.70;25.48;;;;;;;8.04;73.84;100858.35;1753168;81;27331;-73
2022/04/12 06:40:11;;;;;;;42.27;26.00;;;;;;;8.38;73.03;100865.70;1734920;82;25484;-75
2022/04/12 06:42:38;;;;;;;39.03;25.68;;;;;;;8.74;72.11;100867.60;1768427;81;25423;-74
2022/04/12 06:45:06;;;;;;;37.95;25.72;;;;;;;9.10;71.84;100871.88;1768408;81;26205;-75
2022/04/12 06:47:33;;;;;;;41.35;25.43;;;;;;;9.43;70.28;100876.95;1768577;81;25705;-74
2022/04/12 06:50:00;;;;;;;46.25;26.27;;;;;;;9.80;69.82;100871.93;1768390;81;27334;-74
2022/04/12 06:52:26;;;;;;;35.05;25.00;;;;;;;10.15;68.45;100878.77;1768339;81;25566;-74
2022/04/12 06:54:52;;;;;;;39.67;25.82;;;;;;;10.50;67.92;100875.86;1768106;81;25480;-74
2022/04/12 06:57:19;;;;;;;31.62;21.70;;;;;;;10.86;67.08;100881.50;1767512;81;25713;-75
2022/04/12 06:59:45;;;;;;;30.35;21.37;;;;;;;11.20;66.01;100879.02;1768401;81;25422;-73
2022/04/12 07:02:12;;;;;;;28.25;19.60;;;;;;;11.48;64.78;100881.22;1768383;81;27331;-73
2022/04/12 07:04:39;;;;;;;25.12;16.48;;;;;;;11.80;63.97;100874.63;1768278;81;25423;-73
2022/04/12 07:07:05;;;;;;;24.37;16.07;;;;;;;12.13;62.31;100873.39;1768377;81;25438;-74
2022/04/12 07:09:31;;;;;;;22.48;14.80;;;;;;;12.47;61.24;100878.08;1768358;81;25799;-74
2022/04/12 07:12:00;;;;;;;27.58;14.90;;;;;;;12.79;60.85;100877.03;1768384;81;25580;-74
2022/04/12 07:14:29;;;;;;;27.22;16.55;;;;;;;13.08;58.77;100881.99;1768631;81;27406;-73
2022/04/12 07:16:56;;;;;;;16.85;12.00;;;;;;;13.37;58.66;100882.66;1760294;81;25582;-74
2022/04/12 07:19:23;;;;;;;21.90;14.18;;;;;;;13.58;56.12;100877.45;1702698;84;25772;-73
2022/04/12 07:21:49;;;;;;;19.80;13.08;;;;;;;13.85;56.46;100887.84;1702078;84;25670;-73
2022/04/12 07:24:15;;;;;;;19.95;12.00;;;;;;;14.25;56.47;100879.03;1730043;82;25589;-74
2022/04/12 07:26:42;;;;;;;18.65;12.35;;;;;;;14.69;53.92;100889.38;1749239;82;27328;-74
2022/04/12 07:29:08;;;;;;;20.15;12.18;;;;;;;14.85;53.76;100897.05;1699201;84;25485;-73
2022/04/12 07:31:34;;;;;;;18.42;12.03;;;;;;;15.10;52.69;100893.46;1701963;84;25660;-72
2022/04/12 07:34:01;;;;;;;12.47;8.60;;;;;;;15.44;52.31;100895.02;1749246;82;25674;-73
2022/04/12 07:36:28;;;;;;;16.25;10.32;;;;;;;15.78;51.29;100896.83;1749230;82;25622;-73
2022/04/12 07:38:54;;;;;;;14.30;9.30;;;;;;;16.16;50.75;100895.15;1699382;84;27395;-74
2022/04/12 07:41:20;;;;;;;13.90;9.13;;;;;;;16.54;49.66;100899.66;1702022;84;25765;-74
2022/04/12 07:43:47;;;;;;;13.70;8.90;;;;;;;16.66;47.41;100901.08;1749258;82;25588;-73
2022/04/12 07:46:14;;;;;;;11.35;8.50;;;;;;;16.86;47.06;100900.84;1749165;82;26150;-73
2022/04/12 07:48:42;;;;;;;13.60;7.55;;;;;;;16.87;45.11;100903.00;1699263;84;25632;-73
2022/04/12 07:51:10;;;;;;;13.65;6.62;;;;;;;16.90;44.19;100902.33;1701982;84;27402;-74
2022/04/12 07:53:37;;;;;;;11.68;6.65;;;;;;;17.04;43.36;100909.64;1749083;82;25703;-73
2022/04/12 07:56:03;;;;;;;8.65;6.60;;;;;;;16.77;43.21;100905.00;1749326;82;25626;-73
2022/04/12 07:58:30;;;;;;;9.85;5.95;;;;;;;16.35;42.29;100908.33;1716865;83;25651;-74
2022/04/12 08:00:56;;;;;;;12.30;6.30;;;;;;;15.82;42.25;100909.23;1731377;82;25416;-74
2022/04/12 08:03:22;;;;;;;10.05;5.65;;;;;;;15.38;42.23;100906.67;1731254;82;27315;-73
2022/04/12 08:05:50;;;;;;;11.12;5.60;;;;;;;14.95;42.23;100910.33;1729888;82;26038;-74
2022/04/12 08:08:18;;;;;;;10.18;6.30;;;;;;;14.53;42.23;100910.00;1730852;82;25517;-73
2022/04/12 08:10:45;;;;;;;9.03;5.85;;;;;;;14.45;42.86;100908.08;1731195;82;26203;-73
2022/04/12 08:13:12;;;;;;;7.65;5.20;;;;;;;14.77;43.06;100912.26;1731032;82;25602;-74
2022/04/12 08:15:38;;;;;;;10.90;4.80;;;;;;;14.72;42.38;100913.78;1731191;82;27896;-74
2022/04/12 08:18:05;;;;;;;6.70;3.87;;;;;;;14.44;42.08;100911.91;1747490;80;25559;-74
2022/04/12 08:20:32;;;;;;;9.58;4.20;;;;;;;14.73;41.94;100913.47;1748781;82;25722;-74
2022/04/12 08:22:59;;;;;;;10.25;6.37;;;;;;;14.66;41.08;100914.52;1763405;81;25693;-73
2022/04/12 08:25:26;;;;;;;5.90;3.83;;;;;;;14.44;40.83;100916.81;1749001;82;25342;-73
2022/04/12 08:27:52;;;;;;;7.30;3.37;;;;;;;14.16;41.03;100921.73;1762965;81;27439;-73
2022/04/12 08:30:19;;;;;;;6.85;3.80;;;;;;;14.02;41.08;100923.23;1755466;81;25611;-73
2022/04/12 08:32:45;;;;;;;7.03;4.53;;;;;;;13.87;40.62;100920.95;1737293;82;25479;-73
2022/04/12 08:35:11;;;;;;;7.42;4.03;;;;;;;13.73;40.54;100918.36;1781208;80;26383;-74
2022/04/12 08:37:38;;;;;;;7.15;4.30;;;;;;;14.35;41.79;100910.55;1763207;81;25675;-76
2022/04/12 08:40:06;;;;;;;8.15;4.58;;;;;;;15.34;40.84;100922.09;1755567;81;28062;-75
2022/04/12 08:42:33;;;;;;;9.50;4.70;;;;;;;16.01;40.97;100921.87;1752300;81;25764;-75
2022/04/12 08:45:05;;;;;;;8.00;4.10;;;;;;;16.92;41.09;100919.18;1768043;81;25592;-75
2022/04/12 08:47:37;;;;;;;8.43;3.65;;;;;;;17.48;39.70;100912.69;1720335;81;25805;-75
2022/04/12 08:50:03;;;;;;;4.45;2.98;;;;;;;17.32;38.30;100919.39;1766403;81;25327;-74
2022/04/12 08:52:30;;;;;;;3.47;3.03;;;;;;;16.90;36.94;100923.61;1768407;81;27326;-74
2022/04/12 08:54:58;;;;;;;5.33;3.30;;;;;;;16.35;36.52;100917.89;1768072;81;25673;-74
2022/04/12 08:57:24;;;;;;;4.80;3.05;;;;;;;15.86;36.29;100919.72;1767845;81;25839;-74
2022/04/12 08:59:50;;;;;;;6.25;3.20;;;;;;;15.98;37.50;100925.26;1768049;81;25676;-75
2022/04/12 09:02:16;;;;;;;4.12;2.85;;;;;;;16.81;38.11;100914.11;1768002;81;25801;-75
2022/04/12 09:04:43;;;;;;;3.15;2.70;;;;;;;17.85;36.97;100917.38;1767760;81;27288;-75
2022/04/12 09:07:11;;;;;;;4.85;3.00;;;;;;;18.32;36.01;100907.85;1767908;81;25637;-75
2022/04/12 09:09:41;;;;;;;8.40;3.40;;;;;;;18.93;35.47;100909.59;1768259;81;25713;-75
2022/04/12 09:12:13;;;;;;;5.33;3.02;;;;;;;19.63;35.48;100917.25;1767677;81;25626;-74
2022/04/12 09:14:47;;;;;;;4.55;2.98;;;;;;;20.41;34.21;100905.65;1767788;81;25690;-75
2022/04/12 09:17:20;;;;;;;5.55;2.83;;;;;;;20.74;30.84;100900.23;1763095;81;27339;-75
2022/04/12 09:19:51;;;;;;;7.30;5.40;;;;;;;20.94;32.29;100901.79;1719013;83;25670;-74
2022/04/12 09:22:24;;;;;;;4.42;3.05;;;;;;;20.74;31.55;100898.30;1749300;82;25628;-75
2022/04/12 09:24:53;;;;;;;5.42;2.77;;;;;;;21.10;31.87;100897.58;1717052;83;25618;-75
2022/04/12 09:27:26;;;;;;;4.90;3.17;;;;;;;21.50;31.26;100901.02;1731164;82;25939;-77
2022/04/12 09:30:01;;;;;;;6.25;3.40;;;;;;;21.41;29.82;100908.91;1731344;82;27380;-75
2022/04/12 09:32:34;;;;;;;3.70;2.62;;;;;;;20.80;30.20;100899.58;1731305;82;25500;-76
2022/04/12 09:35:00;;;;;;;5.08;3.00;;;;;;;20.11;30.05;100905.63;1730885;82;25681;-77
2022/04/12 09:37:29;;;;;;;4.25;2.60;;;;;;;19.68;30.52;100900.52;1731335;82;25731;-76
2022/04/12 09:40:02;;;;;;;;;;;;;;;19.79;31.31;100899.41;1733931;82;25725;-76
2022/04/12 09:42:49;;;;;;;5.22;3.17;;;;;;;20.43;30.07;100890.97;1731252;82;28065;-76
2022/04/12 09:45:31;;;;;;;3.75;2.85;;;;;;;20.96;30.91;100886.30;1731235;82;25650;-76
2022/04/12 09:48:06;;;;;;;4.05;2.67;;;;;;;21.88;30.37;100888.20;1731217;82;25778;-75
2022/04/12 09:50:33;;;;;;;5.97;2.58;;;;;;;21.76;29.45;100890.59;1731049;82;25640;-76
2022/04/12 09:53:02;;;;;;;4.10;2.47;;;;;;;21.45;28.60;100886.94;1731250;82;25755;-76
2022/04/12 09:55:38;;;;;;;4.67;2.42;;;;;;;21.13;28.70;100894.10;1731380;82;28045;-76
2022/04/12 09:58:07;;;;;;;5.03;3.17;;;;;;;20.66;28.74;100895.20;1730995;82;25746;-75
2022/04/12 10:00:35;;;;;;;6.72;2.90;;;;;;;19.98;28.46;100904.16;1731502;82;25729;-76
2022/04/12 10:03:08;;;;;;;5.92;3.33;;;;;;;19.32;28.45;100900.21;1731356;82;26412;-75
2022/04/12 10:05:35;;;;;;;6.03;2.98;;;;;;;18.61;28.81;100902.06;1731039;82;25679;-75
2022/04/12 10:08:05;;;;;;;9.80;3.77;;;;;;;18.42;29.61;100893.12;1749237;82;27287;-75
2022/04/12 10:10:32;;;;;;;4.28;2.80;;;;;;;19.28;30.24;100895.22;1719392;83;25668;-75
2022/04/12 10:12:59;;;;;;;6.53;4.12;;;;;;;19.86;29.49;100887.22;1749047;82;25576;-75
2022/04/12 10:15:28;;;;;;;5.75;3.55;;;;;;;19.86;29.12;100885.84;1749290;81;26206;-75
2022/04/12 10:17:56;;;;;;;7.83;3.67;;;;;;;19.92;28.73;100887.73;1742971;81;25566;-75
2022/04/12 10:20:23;;;;;;;5.87;3.60;;;;;;;19.55;28.26;100888.84;1732758;82;28019;-75
2022/04/12 10:22:50;;;;;;;5.78;3.92;;;;;;;18.91;28.02;100888.59;1732824;82;25630;-76
2022/04/12 10:25:23;;;;;;;6.20;3.67;;;;;;;18.48;28.76;100894.45;1732882;82;25721;-76
2022/04/12 10:27:56;;;;;;;6.83;3.70;;;;;;;18.48;29.16;100892.30;1732625;82;25631;-76
2022/04/12 10:30:26;;;;;;;6.25;3.15;;;;;;;18.32;28.78;100886.77;1732768;82;25740;-76
2022/04/12 10:33:24;;;;;;;6.03;3.60;;;;;;;17.91;28.96;100892.75;1732886;82;28030;-76
2022/04/12 10:35:55;;;;;;;4.62;3.42;;;;;;;18.53;30.04;100890.67;1702813;84;25784;-74
2022/04/12 10:38:25;;;;;;;6.55;3.60;;;;;;;19.86;29.34;100884.47;1702318;84;25797;-75
2022/04/12 10:40:54;;;;;;;5.67;3.70;;;;;;;20.59;28.59;100886.20;1702303;84;26257;-74
2022/04/12 10:43:36;;;;;;;8.35;3.85;;;;;;;20.32;27.72;100892.13;1702119;84;25977;-75
2022/04/12 10:46:08;;;;;;;6.62;4.28;;;;;;;19.73;27.37;100876.92;1703032;84;27549;-75
2022/04/12 10:48:35;;;;;;;8.05;5.70;;;;;;;19.19;27.00;100878.95;1702509;84;25670;-76
2022/04/12 10:51:04;;;;;;;6.92;3.70;;;;;;;19.27;27.80;100879.32;1703371;84;25675;-76
2022/04/12 10:53:43;;;;;;;7.10;3.90;;;;;;;20.27;28.27;100871.81;1702219;84;26227;-77
2022/04/12 10:56:13;;;;;;;6.53;3.83;;;;;;;21.56;28.24;100869.27;1703895;84;25251;-75
2022/04/12 10:58:43;;;;;;;5.15;3.90;;;;;;;22.65;27.35;100862.04;1703750;84;27395;-76
2022/04/12 11:01:30;;;;;;;6.97;3.52;;;;;;;23.25;26.12;100865.78;1680094;84;25597;-74
2022/04/12 11:04:00;;;;;;;6.50;3.77;;;;;;;23.72;26.11;100860.57;1704533;84;25650;-76
2022/04/12 11:06:30;;;;;;;4.78;3.72;;;;;;;24.36;25.42;100865.05;1703621;84;25596;-76
2022/04/12 11:09:11;;;;;;;8.10;3.92;;;;;;;24.85;24.99;100853.76;1703287;84;25519;-76
2022/04/12 11:11:43;;;;;;;9.55;4.30;;;;;;;25.30;24.64;100856.95;1706031;82;27064;-76
2022/04/12 11:14:37;;;;;;;7.05;4.22;;;;;;;24.70;23.94;100866.77;1712236;82;25414;-76
2022/04/12 11:17:14;;;;;;;5.90;4.10;;;;;;;24.80;24.14;100857.70;1733505;82;25668;-74
2022/04/12 11:19:44;;;;;;;4.45;3.75;;;;;;;25.16;23.93;100861.88;1744006;81;25627;-75
2022/04/12 11:22:14;;;;;;;6.53;3.50;;;;;;;25.43;23.41;100856.75;1768476;81;25772;-75